createdAt,value
2023-04-04T00:01:09.968Z,3.00
2023-04-04T00:03:38.765Z,3.00
2023-04-04T00:06:08.744Z,3.00
2023-04-04T00:08:37.321Z,3.00
2023-04-04T00:11:06.491Z,3.00
2023-04-04T00:13:35.127Z,3.00
2023-04-04T00:16:03.457Z,3.00
2023-04-04T00:18:32.655Z,3.00
2023-04-04T00:21:00.970Z,3.00
2023-04-04T00:23:30.810Z,2.90
2023-04-04T00:25:59.091Z,3.00
2023-04-04T00:28:27.683Z,3.00
2023-04-04T00:30:56.386Z,3.00
2023-04-04T00:33:24.903Z,3.00
2023-04-04T00:35:53.261Z,3.00
2023-04-04T00:38:21.708Z,3.00
2023-04-04T00:40:52.508Z,3.10
2023-04-04T00:43:21.163Z,3.20
2023-04-04T00:45:49.989Z,3.10
2023-04-04T00:48:18.896Z,3.10
2023-04-04T00:50:47.302Z,3.10
2023-04-04T00:53:15.735Z,3.20
2023-04-04T00:55:44.436Z,3.20
2023-04-04T00:58:14.413Z,3.20
2023-04-04T01:00:43.220Z,3.20
2023-04-04T01:03:12.865Z,3.30
2023-04-04T01:05:42.160Z,3.20
2023-04-04T01:08:10.940Z,3.30
2023-04-04T01:10:40.236Z,3.30
2023-04-04T01:13:09.740Z,3.20
2023-04-04T01:15:39.445Z,3.30
2023-04-04T01:18:09.874Z,3.20
2023-04-04T01:20:45.549Z,3.20
2023-04-04T01:23:14.552Z,3.20
2023-04-04T01:25:44.166Z,3.20
2023-04-04T01:28:12.614Z,3.20
2023-04-04T01:30:44.168Z,3.10
2023-04-04T01:33:20.532Z,3.10
2023-04-04T01:36:01.351Z,3.10
2023-04-04T01:38:36.661Z,3.20
2023-04-04T01:41:10.345Z,3.20
2023-04-04T01:43:38.941Z,3.20
2023-04-04T01:46:07.297Z,3.20
2023-04-04T01:48:35.769Z,3.20
2023-04-04T01:51:04.302Z,3.10
2023-04-04T01:53:32.962Z,3.20
2023-04-04T01:56:01.428Z,3.10
2023-04-04T01:58:31.247Z,3.10
2023-04-04T02:00:59.471Z,3.10
2023-04-04T02:03:27.897Z,3.20
2023-04-04T02:05:56.273Z,3.10
2023-04-04T02:08:24.814Z,3.20
2023-04-04T02:10:53.169Z,3.10
2023-04-04T02:13:21.638Z,3.20
2023-04-04T02:15:52.500Z,3.20
2023-04-04T02:18:21.282Z,3.20
2023-04-04T02:20:56.687Z,3.20
2023-04-04T02:23:25.325Z,3.20
2023-04-04T02:25:53.461Z,3.20
2023-04-04T02:28:22.718Z,3.20
2023-04-04T02:30:52.261Z,3.20
2023-04-04T02:33:21.064Z,3.20
2023-04-04T02:35:49.302Z,3.20
2023-04-04T02:38:17.841Z,3.20
2023-04-04T02:40:47.093Z,3.10
2023-04-04T02:43:15.611Z,3.10
2023-04-04T02:45:43.875Z,3.10
2023-04-04T02:48:13.653Z,3.10
2023-04-04T02:50:42.472Z,3.00
2023-04-04T02:53:11.424Z,3.00
2023-04-04T02:55:39.732Z,3.00
2023-04-04T02:58:08.260Z,3.00
2023-04-04T03:00:36.473Z,3.00
2023-04-04T03:03:05.479Z,3.00
2023-04-04T03:05:35.266Z,3.00
2023-04-04T03:08:04.896Z,3.00
2023-04-04T03:10:33.084Z,3.00
2023-04-04T03:13:02.860Z,3.00
2023-04-04T03:15:31.632Z,3.00
2023-04-04T03:18:00.320Z,3.00
2023-04-04T03:20:28.514Z,2.90
2023-04-04T03:22:58.646Z,2.90
2023-04-04T03:25:26.846Z,2.90
2023-04-04T03:27:55.412Z,2.80
2023-04-04T03:30:23.700Z,2.80
2023-04-04T03:32:53.513Z,2.80
2023-04-04T03:35:21.881Z,2.80
2023-04-04T03:37:50.816Z,2.80
2023-04-04T03:40:20.394Z,2.80
2023-04-04T03:42:49.035Z,2.80
2023-04-04T03:45:17.253Z,2.80
2023-04-04T03:47:45.884Z,2.80
2023-04-04T03:50:14.302Z,2.80
2023-04-04T03:52:42.778Z,2.90
2023-04-04T03:55:11.410Z,2.90
2023-04-04T03:57:41.266Z,2.90
2023-04-04T04:00:10.268Z,3.00
2023-04-04T04:02:38.859Z,2.90
2023-04-04T04:05:07.787Z,3.00
2023-04-04T04:07:36.289Z,3.00
2023-04-04T04:10:05.451Z,2.90
2023-04-04T04:12:34.324Z,2.90
2023-04-04T04:15:03.898Z,2.90
2023-04-04T04:17:32.857Z,2.90
2023-04-04T04:20:01.166Z,2.80
2023-04-04T04:22:29.736Z,2.80
2023-04-04T04:24:58.037Z,2.80
2023-04-04T04:27:26.527Z,2.80
2023-04-04T04:29:54.869Z,2.90
2023-04-04T04:32:26.611Z,2.80
2023-04-04T04:34:54.965Z,2.80
2023-04-04T04:37:23.809Z,2.80
2023-04-04T04:39:52.216Z,2.80
2023-04-04T04:42:21.369Z,2.80
2023-04-04T04:44:49.579Z,2.80
2023-04-04T04:47:18.296Z,2.80
2023-04-04T04:49:49.723Z,2.80
2023-04-04T04:52:19.316Z,2.80
2023-04-04T04:54:48.638Z,2.90
2023-04-04T04:57:17.234Z,2.90
2023-04-04T04:59:45.417Z,2.90
2023-04-04T05:02:14.001Z,2.90
2023-04-04T05:04:45.002Z,2.90
2023-04-04T05:07:14.863Z,3.00
2023-04-04T05:09:42.992Z,3.00
2023-04-04T05:12:11.657Z,3.00
2023-04-04T05:14:39.926Z,3.00
2023-04-04T05:17:08.441Z,3.10
2023-04-04T05:19:36.790Z,3.10
2023-04-04T05:22:05.380Z,3.20
2023-04-04T05:24:34.953Z,3.20
2023-04-04T05:27:03.557Z,3.20
2023-04-04T05:29:31.852Z,3.30
2023-04-04T05:32:00.695Z,3.50
2023-04-04T05:34:28.997Z,3.50
2023-04-04T05:36:57.670Z,3.50
2023-04-04T05:39:25.984Z,3.60
2023-04-04T05:41:55.882Z,3.60
2023-04-04T05:44:24.147Z,3.70
2023-04-04T05:46:52.845Z,3.70
2023-04-04T05:49:21.425Z,3.70
2023-04-04T05:51:50.021Z,3.70
2023-04-04T05:54:18.407Z,3.80
2023-04-04T05:56:47.616Z,3.80
2023-04-04T05:59:17.913Z,3.80
2023-04-04T06:01:46.600Z,3.80
2023-04-04T06:04:15.616Z,3.90
2023-04-04T06:06:44.115Z,3.90
2023-04-04T06:09:12.473Z,3.90
2023-04-04T06:11:40.991Z,4.00
2023-04-04T06:14:09.269Z,4.00
2023-04-04T06:16:39.258Z,4.00
2023-04-04T06:19:07.829Z,4.10
2023-04-04T06:21:36.342Z,4.10
2023-04-04T06:24:04.706Z,4.20
2023-04-04T06:26:33.633Z,4.20
2023-04-04T06:29:01.879Z,4.20
2023-04-04T06:31:30.784Z,4.20
2023-04-04T06:34:01.605Z,4.20
2023-04-04T06:36:30.362Z,4.30
2023-04-04T06:38:58.842Z,4.30
2023-04-04T06:41:27.955Z,4.30
2023-04-04T06:43:56.321Z,4.40
2023-04-04T06:46:28.213Z,4.40
2023-04-04T06:48:56.602Z,4.40
2023-04-04T06:51:27.200Z,4.40
2023-04-04T06:53:56.811Z,4.50
2023-04-04T06:56:27.250Z,4.60
2023-04-04T06:58:55.722Z,4.80
2023-04-04T07:01:24.350Z,4.90
2023-04-04T07:03:55.056Z,5.00
2023-04-04T07:06:25.742Z,5.10
2023-04-04T07:08:55.839Z,5.20
2023-04-04T07:11:24.889Z,5.20
2023-04-04T07:13:53.102Z,5.30
2023-04-04T07:16:21.730Z,5.30
2023-04-04T07:18:50.032Z,5.30
2023-04-04T07:21:18.786Z,5.40
2023-04-04T07:23:47.064Z,5.50
2023-04-04T07:26:17.076Z,5.60
2023-04-04T07:28:45.399Z,5.70
2023-04-04T07:31:15.078Z,5.70
2023-04-04T07:33:43.348Z,5.80
2023-04-04T07:36:12.249Z,5.80
2023-04-04T07:38:40.718Z,5.80
2023-04-04T07:41:09.917Z,5.80
2023-04-04T07:43:39.815Z,5.70
2023-04-04T07:46:08.410Z,5.80
2023-04-04T07:48:36.769Z,5.80
2023-04-04T07:51:05.573Z,5.80
2023-04-04T07:53:34.290Z,5.80
2023-04-04T07:56:06.379Z,5.80
2023-04-04T07:58:35.024Z,5.80
2023-04-04T08:01:05.270Z,6.00
2023-04-04T08:03:33.782Z,6.20
2023-04-04T08:06:06.087Z,6.40
2023-04-04T08:08:34.396Z,6.50
2023-04-04T08:11:02.994Z,6.50
2023-04-04T08:13:31.531Z,6.70
2023-04-04T08:16:00.683Z,7.20
2023-04-04T08:18:30.263Z,7.80
2023-04-04T08:20:58.900Z,8.40
2023-04-04T08:23:27.830Z,8.90
2023-04-04T08:25:57.844Z,9.30
2023-04-04T08:28:27.381Z,9.80
2023-04-04T08:30:56.953Z,10.10
2023-04-04T08:33:34.225Z,10.20
2023-04-04T08:36:14.597Z,10.10
2023-04-04T08:38:42.859Z,9.80
2023-04-04T08:41:12.398Z,9.60
2023-04-04T08:43:42.287Z,9.80
2023-04-04T08:46:12.832Z,10.00
2023-04-04T08:48:44.803Z,9.90
2023-04-04T08:51:17.141Z,9.70
2023-04-04T08:53:45.835Z,9.50
2023-04-04T08:56:15.287Z,9.30
2023-04-04T08:58:43.547Z,9.10
2023-04-04T09:01:12.159Z,8.90
2023-04-04T09:03:41.382Z,8.70
2023-04-04T09:06:10.617Z,8.60
2023-04-04T09:08:41.530Z,8.40
2023-04-04T09:11:10.960Z,8.30
2023-04-04T09:13:41.394Z,8.20
2023-04-04T09:16:10.440Z,8.00
2023-04-04T09:18:44.693Z,7.90
2023-04-04T09:21:14.674Z,7.90
2023-04-04T09:23:44.811Z,7.80
2023-04-04T09:26:13.319Z,7.70
2023-04-04T09:28:42.272Z,7.60
2023-04-04T09:31:11.073Z,7.50
2023-04-04T09:33:40.318Z,7.40
2023-04-04T09:36:12.906Z,7.20
2023-04-04T09:38:44.259Z,7.20
2023-04-04T09:41:16.551Z,7.20
2023-04-04T09:43:46.885Z,7.10
2023-04-04T09:46:17.394Z,7.00
2023-04-04T09:48:51.280Z,6.90
2023-04-04T09:51:19.805Z,6.80
2023-04-04T09:53:50.352Z,6.80
2023-04-04T09:56:20.198Z,6.70
2023-04-04T09:59:02.493Z,6.70
2023-04-04T10:01:33.599Z,6.60
2023-04-04T10:04:02.128Z,6.50
2023-04-04T10:06:34.052Z,6.50
2023-04-04T10:09:05.618Z,6.50
2023-04-04T10:11:37.066Z,6.50
2023-04-04T10:14:05.535Z,6.50
2023-04-04T10:16:37.234Z,6.50
2023-04-04T10:19:07.397Z,6.50
2023-04-04T10:21:36.815Z,6.50
2023-04-04T10:24:10.080Z,6.50
2023-04-04T10:26:39.072Z,6.40
2023-04-04T10:29:10.381Z,6.40
2023-04-04T10:31:43.162Z,6.40
2023-04-04T10:34:16.186Z,6.50
2023-04-04T10:36:47.637Z,6.60
2023-04-04T10:39:29.282Z,6.70
2023-04-04T10:41:59.362Z,6.70
2023-04-04T10:44:31.831Z,6.70
2023-04-04T10:47:07.891Z,6.70
2023-04-04T10:49:38.270Z,6.60
2023-04-04T10:52:07.232Z,6.60
2023-04-04T10:54:37.250Z,6.60
2023-04-04T10:57:06.663Z,6.70
2023-04-04T10:59:35.118Z,6.70
2023-04-04T11:02:06.907Z,6.70
2023-04-04T11:04:38.003Z,6.80
2023-04-04T11:07:14.786Z,6.90
2023-04-04T11:09:58.059Z,6.80
2023-04-04T11:12:33.270Z,6.80
2023-04-04T11:15:10.803Z,6.80
2023-04-04T11:18:17.341Z,7.10
2023-04-04T11:20:55.266Z,7.30
2023-04-04T11:23:24.404Z,7.80
2023-04-04T11:25:55.685Z,8.10
2023-04-04T11:28:47.205Z,8.40
2023-04-04T11:31:27.552Z,8.50
2023-04-04T11:33:58.676Z,8.60
2023-04-04T11:36:54.664Z,8.50
2023-04-04T11:39:28.505Z,8.40
2023-04-04T11:42:03.836Z,8.20
2023-04-04T11:44:34.500Z,8.10
2023-04-04T11:47:13.474Z,7.90
2023-04-04T11:49:45.501Z,7.80
2023-04-04T11:52:15.942Z,7.70
2023-04-04T11:54:46.351Z,7.60
2023-04-04T11:57:17.353Z,7.50
2023-04-04T11:59:47.600Z,7.30
2023-04-04T12:02:20.310Z,7.20
2023-04-04T12:04:49.405Z,7.00
2023-04-04T12:07:19.123Z,6.80
2023-04-04T12:09:48.924Z,6.80
2023-04-04T12:12:18.671Z,6.70
2023-04-04T12:14:47.754Z,6.70
2023-04-04T12:17:17.724Z,6.80
2023-04-04T12:19:46.887Z,6.90
2023-04-04T12:22:16.411Z,7.00
2023-04-04T12:24:44.932Z,7.20
2023-04-04T12:27:13.607Z,7.50
2023-04-04T12:29:45.650Z,7.80
2023-04-04T12:32:15.284Z,7.90
2023-04-04T12:34:48.693Z,8.00
2023-04-04T12:37:19.704Z,8.00
2023-04-04T12:39:51.103Z,8.10
2023-04-04T12:42:23.494Z,8.00
2023-04-04T12:44:54.949Z,8.00
2023-04-04T12:47:26.369Z,8.00
2023-04-04T12:49:56.011Z,7.90
2023-04-04T12:52:29.616Z,8.00
2023-04-04T12:55:08.175Z,8.00
2023-04-04T12:57:37.690Z,8.00
2023-04-04T13:00:09.687Z,8.00
2023-04-04T13:02:44.091Z,8.00
2023-04-04T13:05:13.209Z,8.00
2023-04-04T13:07:44.500Z,8.10
2023-04-04T13:10:16.481Z,8.10
2023-04-04T13:12:58.586Z,8.20
2023-04-04T13:15:50.619Z,8.20
2023-04-04T13:18:21.655Z,8.30
2023-04-04T13:20:50.244Z,8.30
2023-04-04T13:23:18.701Z,8.30
2023-04-04T13:25:47.749Z,8.20
2023-04-04T13:28:16.246Z,8.20
2023-04-04T13:30:49.040Z,8.30
2023-04-04T13:33:19.748Z,8.50
2023-04-04T13:35:49.461Z,8.80
2023-04-04T13:38:18.281Z,9.10
2023-04-04T13:40:46.994Z,9.30
2023-04-04T13:43:16.135Z,9.40
2023-04-04T13:45:45.133Z,9.70
2023-04-04T13:48:14.193Z,9.80
2023-04-04T13:50:47.473Z,9.90
2023-04-04T13:53:15.893Z,10.00
2023-04-04T13:56:01.341Z,10.10
2023-04-04T13:58:32.951Z,10.20
2023-04-04T14:01:04.117Z,10.20
2023-04-04T14:03:32.966Z,10.30
2023-04-04T14:06:09.758Z,10.50
2023-04-04T14:08:39.978Z,10.60
2023-04-04T14:11:08.796Z,10.70
2023-04-04T14:13:37.332Z,10.80
2023-04-04T14:16:08.597Z,10.80
2023-04-04T14:18:37.055Z,10.80
2023-04-04T14:21:07.588Z,10.80
2023-04-04T14:23:35.913Z,10.70
2023-04-04T14:26:04.688Z,10.50
2023-04-04T14:28:33.652Z,10.40
2023-04-04T14:31:02.579Z,10.30
2023-04-04T14:33:30.833Z,10.20
2023-04-04T14:35:59.567Z,10.10
2023-04-04T14:38:29.286Z,10.00
2023-04-04T14:40:57.834Z,9.90
2023-04-04T14:43:26.263Z,9.90
2023-04-04T14:45:55.170Z,9.90
2023-04-04T14:48:23.406Z,9.90
2023-04-04T14:50:53.621Z,9.90
2023-04-04T14:53:22.807Z,9.90
2023-04-04T14:55:53.634Z,9.90
2023-04-04T14:58:21.868Z,9.90
2023-04-04T15:00:50.464Z,9.90
2023-04-04T15:03:18.761Z,9.90
2023-04-04T15:05:47.416Z,9.80
2023-04-04T15:08:15.608Z,9.80
2023-04-04T15:10:44.273Z,9.70
2023-04-04T15:13:13.933Z,9.60
2023-04-04T15:15:42.518Z,9.50
2023-04-04T15:18:11.083Z,9.50
2023-04-04T15:20:40.430Z,9.40
2023-04-04T15:23:08.986Z,9.40
2023-04-04T15:25:38.043Z,9.40
2023-04-04T15:28:06.679Z,9.30
2023-04-04T15:30:36.966Z,9.20
2023-04-04T15:33:06.402Z,9.20
2023-04-04T15:35:35.337Z,9.00
2023-04-04T15:38:03.692Z,9.00
2023-04-04T15:40:32.196Z,8.90
2023-04-04T15:43:00.765Z,8.80
2023-04-04T15:45:29.509Z,8.80
2023-04-04T15:47:59.216Z,8.80
2023-04-04T15:50:27.846Z,8.70
2023-04-04T15:52:56.483Z,8.70
2023-04-04T15:55:25.457Z,8.70
2023-04-04T15:57:53.753Z,8.70
2023-04-04T16:00:22.659Z,8.60
2023-04-04T16:02:51.102Z,8.60
2023-04-04T16:05:21.355Z,8.60
2023-04-04T16:07:49.652Z,8.50
2023-04-04T16:10:18.636Z,8.50
2023-04-04T16:12:47.177Z,8.40
2023-04-04T16:15:16.080Z,8.40
2023-04-04T16:17:44.478Z,8.30
2023-04-04T16:20:13.612Z,8.20
2023-04-04T16:22:43.603Z,8.20
2023-04-04T16:25:12.109Z,8.10
2023-04-04T16:27:40.911Z,8.10
2023-04-04T16:30:10.789Z,8.00
2023-04-04T16:32:39.117Z,7.90
2023-04-04T16:35:09.138Z,7.80
2023-04-04T16:37:37.412Z,7.80
2023-04-04T16:40:08.695Z,7.80
2023-04-04T16:42:37.020Z,7.70
2023-04-04T16:45:08.239Z,7.70
2023-04-04T16:47:36.909Z,7.80
2023-04-04T16:50:06.139Z,7.80
2023-04-04T16:52:34.467Z,7.70
2023-04-04T16:55:03.720Z,7.50
2023-04-04T16:57:33.544Z,7.40
2023-04-04T17:00:04.258Z,7.30
2023-04-04T17:02:32.734Z,7.30
2023-04-04T17:05:01.894Z,7.20
2023-04-04T17:07:30.236Z,7.10
2023-04-04T17:09:58.949Z,7.10
2023-04-04T17:12:27.214Z,7.00
2023-04-04T17:14:57.447Z,6.90
2023-04-04T17:17:26.179Z,6.90
2023-04-04T17:19:54.861Z,6.80
2023-04-04T17:22:23.270Z,6.70
2023-04-04T17:24:52.033Z,6.70
2023-04-04T17:27:20.418Z,6.60
2023-04-04T17:29:48.833Z,6.50
2023-04-04T17:32:18.818Z,6.40
2023-04-04T17:34:47.694Z,6.40
2023-04-04T17:37:15.903Z,6.30
2023-04-04T17:39:45.421Z,6.20
2023-04-04T17:42:13.858Z,6.20
2023-04-04T17:44:42.353Z,6.10
2023-04-04T17:47:12.293Z,6.10
2023-04-04T17:49:42.110Z,6.00
2023-04-04T17:52:10.374Z,5.90
2023-04-04T17:54:39.001Z,5.90
2023-04-04T17:57:07.621Z,5.80
2023-04-04T17:59:36.177Z,5.70
2023-04-04T18:02:04.585Z,5.70
2023-04-04T18:04:33.184Z,5.60
2023-04-04T18:07:03.431Z,5.60
2023-04-04T18:09:32.261Z,5.60
2023-04-04T18:12:01.852Z,5.50
2023-04-04T18:14:30.424Z,5.50
2023-04-04T18:16:58.978Z,5.40
2023-04-04T18:19:27.425Z,5.40
2023-04-04T18:21:59.911Z,5.40
2023-04-04T18:24:29.971Z,5.30
2023-04-04T18:26:58.396Z,5.30
2023-04-04T18:29:26.981Z,5.30
2023-04-04T18:31:55.475Z,5.20
2023-04-04T18:34:23.901Z,5.20
2023-04-04T18:36:52.106Z,5.20
2023-04-04T18:39:20.824Z,5.10
2023-04-04T18:41:51.361Z,5.10
2023-04-04T18:44:19.803Z,5.10
2023-04-04T18:46:48.060Z,5.10
2023-04-04T18:49:16.504Z,5.10
2023-04-04T18:51:44.656Z,5.10
2023-04-04T18:54:13.476Z,5.10
2023-04-04T18:56:41.631Z,5.10
2023-04-04T18:59:11.530Z,5.20
2023-04-04T19:01:39.989Z,5.00
2023-04-04T19:04:09.574Z,5.00
2023-04-04T19:06:38.833Z,4.90
2023-04-04T19:09:09.798Z,4.90
2023-04-04T19:11:38.842Z,4.80
2023-04-04T19:14:09.191Z,4.70
2023-04-04T19:16:39.234Z,4.60
2023-04-04T19:19:07.862Z,4.60
2023-04-04T19:21:36.243Z,4.50
2023-04-04T19:24:04.963Z,4.40
2023-04-04T19:26:33.200Z,4.40
2023-04-04T19:29:01.727Z,4.30
2023-04-04T19:31:33.131Z,4.20
2023-04-04T19:34:03.557Z,4.20
2023-04-04T19:36:36.933Z,4.10
2023-04-04T19:39:06.592Z,4.00
2023-04-04T19:41:36.137Z,3.90
2023-04-04T19:44:06.493Z,3.90
2023-04-04T19:46:35.624Z,3.90
2023-04-04T19:49:11.717Z,3.80
2023-04-04T19:51:51.384Z,3.70
2023-04-04T19:54:26.330Z,3.70
2023-04-04T19:57:01.086Z,3.60
2023-04-04T20:00:06.668Z,3.60
2023-04-04T20:02:57.853Z,3.50
2023-04-04T20:06:02.361Z,3.50
2023-04-04T20:08:41.115Z,3.40
2023-04-04T20:11:09.703Z,3.40
2023-04-04T20:13:39.693Z,3.40
2023-04-04T20:16:10.668Z,3.30
2023-04-04T20:18:40.254Z,3.30
2023-04-04T20:21:11.270Z,3.20
2023-04-04T20:23:45.568Z,3.20
2023-04-04T20:26:34.983Z,3.10
2023-04-04T20:29:06.333Z,3.10
2023-04-04T20:31:38.567Z,3.10
2023-04-04T20:34:07.793Z,3.00
2023-04-04T20:36:41.548Z,3.00
2023-04-04T20:39:38.841Z,3.00
2023-04-04T20:42:18.930Z,3.00
2023-04-04T20:44:47.790Z,2.90
2023-04-04T20:47:42.337Z,2.90
2023-04-04T20:50:36.443Z,2.90
2023-04-04T20:53:06.338Z,2.90
2023-04-04T20:55:36.676Z,2.80
2023-04-04T20:58:09.787Z,2.80
2023-04-04T21:00:41.275Z,2.70
2023-04-04T21:03:11.598Z,2.70
2023-04-04T21:05:41.656Z,2.60
2023-04-04T21:08:42.205Z,2.60
2023-04-04T21:11:13.343Z,2.50
2023-04-04T21:13:43.287Z,2.40
2023-04-04T21:16:13.435Z,2.30
2023-04-04T21:18:42.572Z,2.20
2023-04-04T21:21:18.462Z,2.20
2023-04-04T21:23:49.273Z,2.10
2023-04-04T21:26:30.737Z,2.10
2023-04-04T21:29:01.118Z,2.00
2023-04-04T21:31:35.731Z,1.90
2023-04-04T21:34:09.649Z,1.90
2023-04-04T21:36:38.111Z,1.80
2023-04-04T21:39:11.376Z,1.80
2023-04-04T21:41:42.145Z,1.70
2023-04-04T21:44:11.192Z,1.70
2023-04-04T21:46:43.177Z,1.70
2023-04-04T21:49:12.475Z,1.60
2023-04-04T21:51:40.954Z,1.60
2023-04-04T21:54:10.398Z,1.60
2023-04-04T21:56:40.020Z,1.60
2023-04-04T21:59:10.118Z,1.70
2023-04-04T22:01:39.183Z,1.70
2023-04-04T22:04:07.801Z,1.70
2023-04-04T22:06:36.368Z,1.70
2023-04-04T22:09:06.506Z,1.70
2023-04-04T22:11:38.853Z,1.70
2023-04-04T22:14:08.866Z,1.70
2023-04-04T22:16:39.735Z,1.60
2023-04-04T22:19:11.183Z,1.60
2023-04-04T22:21:46.804Z,1.60
2023-04-04T22:24:15.744Z,1.60
2023-04-04T22:26:45.936Z,1.60
2023-04-04T22:29:16.087Z,1.60
2023-04-04T22:31:44.392Z,1.50
2023-04-04T22:34:14.960Z,1.60
2023-04-04T22:36:43.930Z,1.50
2023-04-04T22:39:16.381Z,1.50
2023-04-04T22:41:45.646Z,1.40
2023-04-04T22:44:15.622Z,1.40
2023-04-04T22:46:43.924Z,1.30
2023-04-04T22:49:13.429Z,1.30
2023-04-04T22:51:45.161Z,1.20
2023-04-04T22:54:15.698Z,1.10
2023-04-04T22:56:44.079Z,1.10
2023-04-04T22:59:12.711Z,1.10
2023-04-04T23:01:44.881Z,1.00
2023-04-04T23:04:13.573Z,1.00
2023-04-04T23:06:43.089Z,0.90
2023-04-04T23:09:12.073Z,0.90
2023-04-04T23:11:40.459Z,0.90
2023-04-04T23:14:09.848Z,0.90
2023-04-04T23:16:40.056Z,0.90
2023-04-04T23:19:10.302Z,0.90
2023-04-04T23:21:38.614Z,0.90
2023-04-04T23:24:08.069Z,0.80
2023-04-04T23:26:36.500Z,0.90
2023-04-04T23:29:05.755Z,0.90
2023-04-04T23:31:34.083Z,0.90
2023-04-04T23:34:02.622Z,0.90
2023-04-04T23:36:32.382Z,0.90
2023-04-04T23:39:01.105Z,0.90
2023-04-04T23:41:29.833Z,0.90
2023-04-04T23:43:58.286Z,0.90
2023-04-04T23:46:30.209Z,0.80
2023-04-04T23:48:58.852Z,0.70
2023-04-04T23:51:30.393Z,0.80
2023-04-04T23:54:00.306Z,0.70
2023-04-04T23:56:28.480Z,0.70
2023-04-04T23:58:56.945Z,0.60
